createdAt,value
2019-02-27T00:01:03.590Z,5.13
2019-02-27T00:02:07.342Z,5.12
2019-02-27T00:03:11.092Z,5.01
2019-02-27T00:04:14.738Z,4.99
2019-02-27T00:05:18.466Z,5.02
2019-02-27T00:06:22.213Z,5.00
2019-02-27T00:07:25.948Z,4.96
2019-02-27T00:08:29.585Z,4.93
2019-02-27T00:09:33.440Z,4.95
2019-02-27T00:10:39.262Z,4.95
2019-02-27T00:11:45.862Z,5.00
2019-02-27T00:12:51.770Z,4.93
2019-02-27T00:13:57.651Z,4.85
2019-02-27T00:15:02.112Z,4.92
2019-02-27T00:16:04.972Z,4.93
2019-02-27T00:17:08.617Z,4.93
2019-02-27T00:18:12.727Z,4.87
2019-02-27T00:19:16.728Z,4.78
2019-02-27T00:20:20.375Z,4.86
2019-02-27T00:21:24.048Z,4.94
2019-02-27T00:22:27.699Z,4.88
2019-02-27T00:23:31.373Z,4.87
2019-02-27T00:24:35.073Z,4.86
2019-02-27T00:25:38.720Z,4.83
2019-02-27T00:26:43.073Z,4.73
2019-02-27T00:27:49.144Z,4.75
2019-02-27T00:28:55.983Z,4.74
2019-02-27T00:29:59.463Z,4.70
2019-02-27T00:31:02.999Z,4.67
2019-02-27T00:32:07.025Z,4.65
2019-02-27T00:33:10.620Z,4.67
2019-02-27T00:34:14.281Z,4.62
2019-02-27T00:35:17.942Z,4.59
2019-02-27T00:36:21.586Z,4.66
2019-02-27T00:37:25.233Z,4.61
2019-02-27T00:38:28.875Z,4.58
2019-02-27T00:39:32.556Z,4.58
2019-02-27T00:40:39.359Z,4.59
2019-02-27T00:41:45.708Z,4.63
2019-02-27T00:42:47.710Z,4.59
2019-02-27T00:43:51.352Z,4.53
2019-02-27T00:44:55.025Z,4.52
2019-02-27T00:45:58.589Z,4.45
2019-02-27T00:47:02.224Z,4.44
2019-02-27T00:48:05.872Z,4.42
2019-02-27T00:49:09.526Z,4.37
2019-02-27T00:50:13.242Z,4.39
2019-02-27T00:51:16.894Z,4.41
2019-02-27T00:52:20.466Z,4.55
2019-02-27T00:53:24.437Z,4.47
2019-02-27T00:54:29.005Z,4.45
2019-02-27T00:55:38.450Z,4.44
2019-02-27T00:56:44.841Z,4.45
2019-02-27T00:57:45.744Z,4.44
2019-02-27T00:58:49.386Z,4.45
2019-02-27T00:59:53.119Z,4.40
2019-02-27T01:00:56.805Z,4.28
2019-02-27T01:02:00.457Z,4.30
2019-02-27T01:03:04.104Z,4.36
2019-02-27T01:04:07.814Z,4.32
2019-02-27T01:05:11.943Z,4.47
2019-02-27T01:06:15.604Z,4.41
2019-02-27T01:07:20.742Z,4.33
2019-02-27T01:08:25.093Z,4.32
2019-02-27T01:09:29.993Z,4.23
2019-02-27T01:10:33.640Z,4.23
2019-02-27T01:11:37.393Z,4.17
2019-02-27T01:12:41.241Z,4.11
2019-02-27T01:13:44.882Z,4.04
2019-02-27T01:14:48.529Z,4.09
2019-02-27T01:15:52.171Z,4.13
2019-02-27T01:16:55.844Z,4.08
2019-02-27T01:17:59.491Z,4.11
2019-02-27T01:19:04.756Z,4.13
2019-02-27T01:20:12.687Z,4.09
2019-02-27T01:21:19.261Z,4.09
2019-02-27T01:22:21.788Z,4.08
2019-02-27T01:23:25.415Z,3.96
2019-02-27T01:24:29.056Z,3.91
2019-02-27T01:25:33.042Z,3.83
2019-02-27T01:26:36.688Z,3.90
2019-02-27T01:27:40.296Z,3.93
2019-02-27T01:28:45.477Z,4.01
2019-02-27T01:29:51.581Z,4.07
2019-02-27T01:30:54.641Z,4.06
2019-02-27T01:31:58.322Z,4.11
2019-02-27T01:33:04.201Z,4.22
2019-02-27T01:34:11.163Z,4.23
2019-02-27T01:35:17.520Z,4.29
2019-02-27T01:36:21.767Z,4.29
2019-02-27T01:37:24.975Z,4.30
2019-02-27T01:38:28.665Z,4.34
2019-02-27T01:39:32.314Z,4.40
2019-02-27T01:40:35.953Z,4.37
2019-02-27T01:41:39.914Z,4.35
2019-02-27T01:42:43.559Z,4.32
2019-02-27T01:43:47.232Z,4.32
2019-02-27T01:44:50.965Z,4.34
2019-02-27T01:45:55.018Z,4.29
2019-02-27T01:47:01.537Z,4.31
2019-02-27T01:48:04.125Z,4.25
2019-02-27T01:49:07.779Z,4.15
2019-02-27T01:50:34.931Z,4.11
2019-02-27T01:51:38.567Z,4.08
2019-02-27T01:52:42.209Z,4.11
2019-02-27T01:53:45.845Z,4.10
2019-02-27T01:54:49.618Z,3.96
2019-02-27T01:55:56.247Z,3.79
2019-02-27T01:57:02.496Z,3.78
2019-02-27T01:58:04.326Z,3.70
2019-02-27T01:59:07.976Z,3.69
2019-02-27T02:00:11.756Z,3.63
2019-02-27T02:01:15.406Z,3.60
2019-02-27T02:02:19.366Z,3.59
2019-02-27T02:03:23.033Z,3.52
2019-02-27T02:04:26.656Z,3.58
2019-02-27T02:05:31.368Z,3.60
2019-02-27T02:06:35.003Z,3.55
2019-02-27T02:07:40.288Z,3.44
2019-02-27T02:08:47.928Z,3.36
2019-02-27T02:09:49.376Z,3.44
2019-02-27T02:10:56.079Z,3.49
2019-02-27T02:12:11.403Z,3.52
2019-02-27T02:13:18.440Z,3.62
2019-02-27T02:14:40.015Z,3.72
2019-02-27T02:16:10.699Z,3.78
2019-02-27T02:17:20.045Z,3.74
2019-02-27T02:18:29.434Z,3.76
2019-02-27T02:19:35.992Z,3.79
2019-02-27T02:21:00.896Z,3.86
2019-02-27T02:22:11.306Z,3.94
2019-02-27T02:23:33.148Z,4.12
2019-02-27T02:25:00.561Z,4.13
2019-02-27T02:26:16.091Z,4.24
2019-02-27T02:27:22.684Z,4.24
2019-02-27T02:28:48.218Z,4.24
2019-02-27T02:30:16.917Z,4.21
2019-02-27T02:31:32.525Z,4.25
2019-02-27T02:32:55.565Z,4.13
2019-02-27T02:34:24.762Z,4.08
2019-02-27T02:35:34.220Z,4.17
2019-02-27T02:36:46.561Z,4.11
2019-02-27T02:38:12.334Z,4.07
2019-02-27T02:39:31.399Z,4.01
2019-02-27T02:40:54.438Z,3.99
2019-02-27T02:42:06.718Z,3.94
2019-02-27T02:43:41.641Z,3.98
2019-02-27T02:45:02.659Z,3.96
2019-02-27T02:46:12.223Z,3.96
2019-02-27T02:47:27.737Z,3.99
2019-02-27T02:48:56.899Z,4.07
2019-02-27T02:50:18.474Z,4.06
2019-02-27T02:51:34.233Z,4.08
2019-02-27T02:52:46.600Z,4.04
2019-02-27T02:54:08.230Z,3.98
2019-02-27T02:55:23.985Z,4.00
2019-02-27T02:56:36.167Z,3.99
2019-02-27T02:57:57.738Z,4.04
2019-02-27T02:59:36.321Z,4.11
2019-02-27T03:00:42.881Z,4.14
2019-02-27T03:01:50.220Z,4.10
2019-02-27T03:03:11.271Z,4.10
2019-02-27T03:04:51.440Z,4.06
2019-02-27T03:06:17.661Z,4.11
2019-02-27T03:07:35.614Z,4.13
2019-02-27T03:08:47.934Z,4.14
2019-02-27T03:09:57.135Z,4.26
2019-02-27T03:11:19.139Z,4.21
2019-02-27T03:12:30.959Z,4.16
2019-02-27T03:13:41.511Z,4.24
2019-02-27T03:15:18.619Z,4.26
2019-02-27T03:16:41.067Z,4.19
2019-02-27T03:17:55.120Z,4.07
2019-02-27T03:19:06.262Z,4.05
2019-02-27T03:20:32.818Z,4.09
2019-02-27T03:21:51.454Z,4.21
2019-02-27T03:23:26.582Z,4.25
2019-02-27T03:24:49.893Z,4.18
2019-02-27T03:26:05.579Z,4.15
2019-02-27T03:27:14.895Z,4.11
2019-02-27T03:28:21.442Z,3.97
2019-02-27T03:29:39.767Z,3.94
2019-02-27T03:30:58.114Z,3.95
2019-02-27T03:32:10.533Z,3.99
2019-02-27T03:33:32.065Z,4.02
2019-02-27T03:34:51.475Z,4.00
2019-02-27T03:36:04.454Z,3.93
2019-02-27T03:37:23.297Z,3.97
2019-02-27T03:39:01.674Z,4.06
2019-02-27T03:40:45.099Z,4.07
2019-02-27T03:42:12.811Z,3.97
2019-02-27T03:43:31.371Z,3.79
2019-02-27T03:44:40.795Z,3.71
2019-02-27T03:46:06.284Z,3.74
2019-02-27T03:47:17.075Z,3.80
2019-02-27T03:48:49.664Z,3.71
2019-02-27T03:49:58.983Z,3.67
2019-02-27T03:51:37.382Z,3.65
2019-02-27T03:52:52.657Z,3.63
2019-02-27T03:54:20.879Z,3.75
2019-02-27T03:55:32.893Z,3.77
2019-02-27T03:57:01.002Z,3.84
2019-02-27T03:58:16.463Z,3.83
2019-02-27T03:59:34.640Z,3.67
2019-02-27T04:01:02.725Z,3.60
2019-02-27T04:02:23.803Z,3.56
2019-02-27T04:03:30.359Z,3.50
2019-02-27T04:04:45.596Z,3.45
2019-02-27T04:06:19.640Z,3.37
2019-02-27T04:07:31.895Z,3.37
2019-02-27T04:08:56.711Z,3.43
2019-02-27T04:10:00.380Z,3.42
2019-02-27T04:11:05.887Z,3.46
2019-02-27T04:12:09.437Z,3.51
2019-02-27T04:13:13.076Z,3.51
2019-02-27T04:14:30.616Z,3.54
2019-02-27T04:15:34.428Z,3.63
2019-02-27T04:16:38.272Z,3.60
2019-02-27T04:17:40.733Z,3.49
2019-02-27T04:18:44.367Z,3.43
2019-02-27T04:19:48.009Z,3.42
2019-02-27T04:20:51.653Z,3.53
2019-02-27T04:22:00.479Z,3.58
2019-02-27T04:23:01.385Z,3.54
2019-02-27T04:24:05.022Z,3.39
2019-02-27T04:25:09.079Z,3.29
2019-02-27T04:26:13.103Z,3.22
2019-02-27T04:27:20.035Z,3.18
2019-02-27T04:28:22.150Z,3.26
2019-02-27T04:29:25.779Z,3.31
2019-02-27T04:30:29.459Z,3.44
2019-02-27T04:31:33.153Z,3.45
2019-02-27T04:32:36.801Z,3.41
2019-02-27T04:33:40.540Z,3.37
2019-02-27T04:34:44.180Z,3.28
2019-02-27T04:35:47.811Z,3.27
2019-02-27T04:36:51.459Z,3.34
2019-02-27T04:37:55.103Z,3.27
2019-02-27T04:39:01.875Z,3.33
2019-02-27T04:40:06.035Z,3.41
2019-02-27T04:41:09.663Z,3.53
2019-02-27T04:42:13.315Z,3.47
2019-02-27T04:43:16.949Z,3.43
2019-02-27T04:44:20.637Z,3.38
2019-02-27T04:45:24.668Z,3.28
2019-02-27T04:46:28.313Z,3.27
2019-02-27T04:47:31.934Z,3.30
2019-02-27T04:48:35.620Z,3.30
2019-02-27T04:49:39.310Z,3.39
2019-02-27T04:50:44.163Z,3.49
2019-02-27T04:51:50.610Z,3.51
2019-02-27T04:52:57.751Z,3.54
2019-02-27T04:53:59.145Z,3.54
2019-02-27T04:55:03.123Z,3.43
2019-02-27T04:56:06.762Z,3.48
2019-02-27T04:57:10.449Z,3.32
2019-02-27T04:58:14.099Z,3.23
2019-02-27T04:59:18.773Z,3.19
2019-02-27T05:00:26.099Z,3.18
2019-02-27T05:01:28.382Z,3.14
2019-02-27T05:02:32.402Z,3.29
2019-02-27T05:03:36.033Z,3.27
2019-02-27T05:04:39.667Z,3.39
2019-02-27T05:05:43.335Z,3.45
2019-02-27T05:06:47.780Z,3.48
2019-02-27T05:07:54.131Z,3.52
2019-02-27T05:08:59.786Z,3.54
2019-02-27T05:10:02.283Z,3.49
2019-02-27T05:11:05.972Z,3.46
2019-02-27T05:12:09.616Z,3.42
2019-02-27T05:13:13.259Z,3.37
2019-02-27T05:14:16.896Z,3.32
2019-02-27T05:15:20.540Z,3.25
2019-02-27T05:16:24.142Z,3.24
2019-02-27T05:17:27.780Z,3.20
2019-02-27T05:18:31.426Z,3.10
2019-02-27T05:19:37.242Z,3.14
2019-02-27T05:20:44.800Z,3.09
2019-02-27T05:21:45.816Z,3.00
2019-02-27T05:22:49.456Z,3.06
2019-02-27T05:23:53.028Z,3.11
2019-02-27T05:24:57.011Z,3.08
2019-02-27T05:26:00.659Z,3.00
2019-02-27T05:27:04.341Z,3.15
2019-02-27T05:28:07.978Z,3.28
2019-02-27T05:29:11.614Z,3.25
2019-02-27T05:30:15.545Z,3.11
2019-02-27T05:31:19.222Z,3.13
2019-02-27T05:32:25.315Z,3.14
2019-02-27T05:33:28.675Z,3.15
2019-02-27T05:34:32.477Z,3.16
2019-02-27T05:35:36.445Z,3.16
2019-02-27T05:36:40.091Z,3.23
2019-02-27T05:37:44.262Z,3.31
2019-02-27T05:38:47.962Z,3.25
2019-02-27T05:39:51.785Z,3.23
2019-02-27T05:40:59.875Z,3.22
2019-02-27T05:42:00.985Z,3.31
2019-02-27T05:43:04.703Z,3.37
2019-02-27T05:44:08.352Z,3.43
2019-02-27T05:45:12.669Z,3.43
2019-02-27T05:46:16.379Z,3.50
2019-02-27T05:47:20.073Z,3.54
2019-02-27T05:48:23.715Z,3.51
2019-02-27T05:49:27.542Z,3.50
2019-02-27T05:50:33.982Z,3.51
2019-02-27T05:51:36.984Z,3.47
2019-02-27T05:52:40.659Z,3.32
2019-02-27T05:53:47.684Z,3.27
2019-02-27T05:54:51.322Z,3.25
2019-02-27T05:55:54.969Z,3.31
2019-02-27T05:56:58.673Z,3.38
2019-02-27T05:58:02.732Z,3.32
2019-02-27T05:59:06.385Z,3.25
2019-02-27T06:00:15.975Z,3.26
2019-02-27T06:01:19.619Z,3.29
2019-02-27T06:02:23.270Z,3.29
2019-02-27T06:03:26.951Z,3.24
2019-02-27T06:04:30.600Z,3.30
2019-02-27T06:05:36.011Z,3.40
2019-02-27T06:06:39.683Z,3.39
2019-02-27T06:07:43.323Z,3.51
2019-02-27T06:08:47.016Z,3.46
2019-02-27T06:09:50.716Z,3.45
2019-02-27T06:10:55.993Z,3.50
2019-02-27T06:11:59.900Z,3.56
2019-02-27T06:13:03.633Z,3.60
2019-02-27T06:14:07.305Z,3.62
2019-02-27T06:15:18.793Z,3.61
2019-02-27T06:16:22.444Z,3.60
2019-02-27T06:17:27.735Z,3.57
2019-02-27T06:18:31.335Z,3.59
2019-02-27T06:19:37.266Z,3.68
2019-02-27T06:20:42.760Z,3.78
2019-02-27T06:21:46.712Z,3.80
2019-02-27T06:22:50.302Z,3.80
2019-02-27T06:23:53.941Z,3.78
2019-02-27T06:24:57.549Z,3.74
2019-02-27T06:26:02.631Z,3.65
2019-02-27T06:27:06.923Z,3.70
2019-02-27T06:28:13.674Z,3.77
2019-02-27T06:29:17.323Z,3.71
2019-02-27T06:30:21.661Z,3.68
2019-02-27T06:31:25.310Z,3.73
2019-02-27T06:32:33.300Z,3.83
2019-02-27T06:33:37.608Z,3.92
2019-02-27T06:34:41.251Z,4.00
2019-02-27T06:35:45.114Z,4.09
2019-02-27T06:36:48.766Z,4.20
2019-02-27T06:37:52.405Z,4.29
2019-02-27T06:39:00.139Z,4.32
2019-02-27T06:40:01.383Z,4.36
2019-02-27T06:41:05.026Z,4.40
2019-02-27T06:42:08.733Z,4.47
2019-02-27T06:43:12.393Z,4.44
2019-02-27T06:44:16.127Z,4.43
2019-02-27T06:45:19.785Z,4.61
2019-02-27T06:46:23.483Z,4.53
2019-02-27T06:47:27.161Z,4.56
2019-02-27T06:48:30.817Z,4.58
2019-02-27T06:49:34.487Z,4.60
2019-02-27T06:50:38.137Z,4.54
2019-02-27T06:51:41.781Z,4.60
2019-02-27T06:52:45.434Z,4.70
2019-02-27T06:53:48.946Z,4.69
2019-02-27T06:54:52.933Z,4.75
2019-02-27T06:55:56.701Z,4.82
2019-02-27T06:57:00.337Z,4.93
2019-02-27T06:58:04.210Z,5.03
2019-02-27T06:59:08.157Z,5.11
2019-02-27T07:00:17.648Z,5.22
2019-02-27T07:01:21.309Z,5.38
2019-02-27T07:02:24.944Z,5.49
2019-02-27T07:03:29.519Z,5.57
2019-02-27T07:04:39.204Z,5.66
2019-02-27T07:05:39.312Z,5.68
2019-02-27T07:06:42.987Z,5.74
2019-02-27T07:07:46.618Z,5.78
2019-02-27T07:08:50.258Z,5.90
2019-02-27T07:09:53.891Z,5.93
2019-02-27T07:11:09.946Z,6.00
2019-02-27T07:12:03.314Z,6.06
2019-02-27T07:13:06.959Z,6.17
2019-02-27T07:14:10.597Z,6.17
2019-02-27T07:15:18.828Z,6.24
2019-02-27T07:16:22.899Z,6.22
2019-02-27T07:17:29.225Z,6.30
2019-02-27T07:18:32.803Z,6.36
2019-02-27T07:19:36.440Z,6.35
2019-02-27T07:20:40.070Z,6.39
2019-02-27T07:21:43.705Z,6.46
2019-02-27T07:22:47.409Z,6.39
2019-02-27T07:23:51.047Z,6.46
2019-02-27T07:24:54.684Z,6.46
2019-02-27T07:25:58.329Z,6.45
2019-02-27T07:27:02.318Z,6.53
2019-02-27T07:28:08.170Z,6.56
2019-02-27T07:29:21.119Z,6.63
2019-02-27T07:30:23.814Z,6.67
2019-02-27T07:31:27.708Z,6.74
2019-02-27T07:32:32.112Z,6.78
2019-02-27T07:33:37.986Z,6.81
2019-02-27T07:34:41.158Z,6.81
2019-02-27T07:35:44.793Z,6.93
2019-02-27T07:36:48.413Z,6.97
2019-02-27T07:37:52.059Z,6.93
2019-02-27T07:38:57.656Z,6.93
2019-02-27T07:40:01.103Z,6.96
2019-02-27T07:41:04.727Z,7.03
2019-02-27T07:42:08.364Z,7.15
2019-02-27T07:43:12.057Z,7.20
2019-02-27T07:44:15.696Z,7.24
2019-02-27T07:45:22.576Z,7.22
2019-02-27T07:46:26.155Z,7.29
2019-02-27T07:47:30.132Z,7.24
2019-02-27T07:48:33.768Z,7.32
2019-02-27T07:49:37.430Z,7.36
2019-02-27T07:50:41.409Z,7.38
2019-02-27T07:51:45.045Z,7.43
2019-02-27T07:52:49.066Z,7.49
2019-02-27T07:53:53.814Z,7.57
2019-02-27T07:54:58.506Z,7.59
2019-02-27T07:56:02.609Z,7.62
2019-02-27T07:57:06.528Z,7.66
2019-02-27T07:58:10.159Z,7.62
2019-02-27T07:59:13.712Z,7.64
2019-02-27T08:00:19.164Z,7.68
2019-02-27T08:01:23.511Z,7.69
2019-02-27T08:02:27.907Z,7.73
2019-02-27T08:03:31.535Z,7.90
2019-02-27T08:04:35.082Z,7.99
2019-02-27T08:05:38.740Z,7.96
2019-02-27T08:06:42.384Z,8.04
2019-02-27T08:07:48.676Z,8.00
2019-02-27T08:08:51.365Z,7.85
2019-02-27T08:09:56.437Z,7.95
2019-02-27T08:11:00.105Z,8.11
2019-02-27T08:12:03.742Z,8.08
2019-02-27T08:13:07.453Z,8.00
2019-02-27T08:14:12.876Z,8.04
2019-02-27T08:15:18.051Z,8.19
2019-02-27T08:16:22.631Z,8.23
2019-02-27T08:17:26.498Z,8.25
2019-02-27T08:18:33.574Z,8.29
2019-02-27T08:19:35.586Z,8.26
2019-02-27T08:20:39.230Z,8.24
2019-02-27T08:21:42.890Z,8.20
2019-02-27T08:22:46.518Z,8.23
2019-02-27T08:23:50.146Z,8.33
2019-02-27T08:24:53.783Z,8.53
2019-02-27T08:25:57.423Z,8.67
2019-02-27T08:27:01.095Z,8.67
2019-02-27T08:28:04.725Z,8.60
2019-02-27T08:29:08.366Z,8.67
2019-02-27T08:30:22.636Z,8.86
2019-02-27T08:31:28.259Z,8.92
2019-02-27T08:32:34.499Z,8.99
2019-02-27T08:33:37.398Z,9.07
2019-02-27T08:34:41.144Z,8.95
2019-02-27T08:35:44.775Z,9.03
2019-02-27T08:36:48.413Z,9.05
2019-02-27T08:38:01.907Z,8.97
2019-02-27T08:38:57.471Z,8.95
2019-02-27T08:40:01.383Z,8.98
2019-02-27T08:41:05.011Z,9.06
2019-02-27T08:42:08.961Z,9.17
2019-02-27T08:43:12.628Z,9.14
2019-02-27T08:44:16.263Z,9.12
2019-02-27T08:45:20.853Z,9.11
2019-02-27T08:46:24.500Z,9.20
2019-02-27T08:47:28.126Z,9.41
2019-02-27T08:48:31.788Z,9.41
2019-02-27T08:49:35.406Z,9.48
2019-02-27T08:50:39.043Z,9.52
2019-02-27T08:51:42.745Z,9.50
2019-02-27T08:52:50.568Z,9.49
2019-02-27T08:53:51.822Z,9.43
2019-02-27T08:54:56.119Z,9.45
2019-02-27T08:55:59.743Z,9.53
2019-02-27T08:57:03.387Z,9.59
2019-02-27T08:58:07.271Z,9.58
2019-02-27T08:59:11.396Z,9.57
2019-02-27T09:00:17.942Z,9.60
2019-02-27T09:01:22.330Z,9.67
2019-02-27T09:02:29.212Z,9.62
2019-02-27T09:03:36.160Z,9.70
2019-02-27T09:04:36.836Z,9.73
2019-02-27T09:05:40.467Z,9.70
2019-02-27T09:06:44.102Z,9.62
2019-02-27T09:07:47.838Z,9.70
2019-02-27T09:08:51.466Z,9.87
2019-02-27T09:09:55.276Z,9.89
2019-02-27T09:10:58.958Z,10.05
2019-02-27T09:12:03.177Z,10.30
2019-02-27T09:13:06.923Z,10.50
2019-02-27T09:14:12.030Z,10.56
2019-02-27T09:15:15.897Z,10.52
2019-02-27T09:16:19.538Z,10.52
2019-02-27T09:17:26.848Z,10.53
2019-02-27T09:18:29.275Z,10.64
2019-02-27T09:19:32.909Z,10.56
2019-02-27T09:20:36.592Z,10.38
2019-02-27T09:21:40.231Z,10.42
2019-02-27T09:22:43.867Z,10.34
2019-02-27T09:23:47.518Z,10.24
2019-02-27T09:24:51.149Z,10.10
2019-02-27T09:25:57.256Z,10.00
2019-02-27T09:27:00.215Z,9.90
2019-02-27T09:28:09.030Z,9.97
2019-02-27T09:29:09.319Z,10.12
2019-02-27T09:30:18.373Z,10.22
2019-02-27T09:31:22.041Z,10.08
2019-02-27T09:32:25.678Z,9.77
2019-02-27T09:33:38.354Z,9.55
2019-02-27T09:34:34.958Z,9.46
2019-02-27T09:35:38.867Z,9.44
2019-02-27T09:36:43.267Z,9.47
2019-02-27T09:37:48.256Z,9.43
2019-02-27T09:38:57.378Z,9.49
2019-02-27T09:39:58.629Z,9.55
2019-02-27T09:41:02.603Z,9.61
2019-02-27T09:42:06.277Z,9.49
2019-02-27T09:43:09.969Z,9.37
2019-02-27T09:44:14.422Z,9.43
2019-02-27T09:45:35.222Z,9.43
2019-02-27T09:46:39.156Z,9.45
2019-02-27T09:47:42.831Z,9.36
2019-02-27T09:48:46.464Z,9.24
2019-02-27T09:49:50.093Z,8.99
2019-02-27T09:50:53.736Z,9.07
2019-02-27T09:51:57.288Z,9.12
2019-02-27T09:53:03.297Z,9.15
2019-02-27T09:54:08.112Z,9.02
2019-02-27T09:55:12.699Z,9.06
2019-02-27T09:56:16.331Z,9.15
2019-02-27T09:57:19.971Z,9.12
2019-02-27T09:58:23.686Z,9.04
2019-02-27T09:59:27.275Z,9.08
2019-02-27T10:00:36.304Z,8.95
2019-02-27T10:01:39.940Z,8.90
2019-02-27T10:02:46.391Z,8.90
2019-02-27T10:03:48.939Z,8.91
2019-02-27T10:04:52.622Z,8.96
2019-02-27T10:05:56.243Z,8.98
2019-02-27T10:06:59.874Z,8.91
2019-02-27T10:08:03.510Z,8.95
2019-02-27T10:09:08.140Z,9.02
2019-02-27T10:10:11.833Z,9.06
2019-02-27T10:11:18.812Z,9.02
2019-02-27T10:12:21.040Z,9.08
2019-02-27T10:13:24.667Z,9.10
2019-02-27T10:14:28.301Z,9.11
2019-02-27T10:15:31.975Z,9.02
2019-02-27T10:16:35.613Z,8.95
2019-02-27T10:17:41.047Z,8.89
2019-02-27T10:18:44.809Z,8.94
2019-02-27T10:19:48.442Z,8.98
2019-02-27T10:20:52.212Z,8.96
2019-02-27T10:21:55.830Z,8.95
2019-02-27T10:22:59.735Z,8.93
2019-02-27T10:24:04.845Z,8.96
2019-02-27T10:25:09.549Z,8.97
2019-02-27T10:26:13.224Z,9.06
2019-02-27T10:27:16.860Z,9.05
2019-02-27T10:28:20.490Z,8.99
2019-02-27T10:29:24.127Z,9.03
2019-02-27T10:30:27.794Z,9.14
2019-02-27T10:31:31.454Z,9.21
2019-02-27T10:32:36.702Z,9.29
2019-02-27T10:33:42.819Z,9.16
2019-02-27T10:34:45.827Z,9.21
2019-02-27T10:35:51.164Z,9.20
2019-02-27T10:36:54.984Z,9.13
2019-02-27T10:37:58.777Z,9.23
2019-02-27T10:39:02.825Z,9.33
2019-02-27T10:40:23.976Z,9.47
2019-02-27T10:41:27.613Z,9.57
2019-02-27T10:42:31.466Z,9.73
2019-02-27T10:43:35.116Z,9.90
2019-02-27T10:44:38.758Z,9.96
2019-02-27T10:45:42.400Z,10.07
2019-02-27T10:46:46.335Z,10.09
2019-02-27T10:47:50.008Z,10.13
2019-02-27T10:48:53.659Z,10.17
2019-02-27T10:50:01.620Z,10.28
2019-02-27T10:51:02.916Z,10.14
2019-02-27T10:52:06.642Z,10.11
2019-02-27T10:53:10.677Z,10.12
2019-02-27T10:54:14.307Z,10.24
2019-02-27T10:55:22.260Z,10.22
2019-02-27T10:56:25.896Z,10.30
2019-02-27T10:57:31.868Z,10.46
2019-02-27T10:58:34.950Z,10.61
2019-02-27T10:59:38.581Z,10.54
2019-02-27T11:00:43.200Z,10.67
2019-02-27T11:01:46.856Z,10.81
2019-02-27T11:02:52.461Z,10.91
2019-02-27T11:03:55.996Z,11.13
2019-02-27T11:04:59.624Z,11.20
2019-02-27T11:06:03.265Z,11.32
2019-02-27T11:07:06.895Z,11.47
2019-02-27T11:08:10.599Z,11.70
2019-02-27T11:09:20.282Z,11.90
2019-02-27T11:10:24.753Z,12.09
2019-02-27T11:11:28.470Z,11.98
2019-02-27T11:12:32.397Z,11.98
2019-02-27T11:13:36.044Z,11.86
2019-02-27T11:14:39.705Z,11.90
2019-02-27T11:15:44.807Z,11.90
2019-02-27T11:16:48.779Z,11.97
2019-02-27T11:17:52.422Z,11.93
2019-02-27T11:18:56.062Z,11.93
2019-02-27T11:19:59.707Z,11.78
2019-02-27T11:21:03.455Z,11.79
2019-02-27T11:22:07.092Z,11.61
2019-02-27T11:23:10.729Z,11.52
2019-02-27T11:24:16.757Z,11.64
2019-02-27T11:25:22.541Z,11.57
2019-02-27T11:26:26.848Z,11.67
2019-02-27T11:27:30.485Z,11.92
2019-02-27T11:28:34.124Z,12.04
2019-02-27T11:29:37.680Z,11.99
2019-02-27T11:30:42.646Z,11.90
2019-02-27T11:31:46.285Z,11.95
2019-02-27T11:32:49.926Z,11.90
2019-02-27T11:33:53.562Z,11.90
2019-02-27T11:34:57.274Z,11.76
2019-02-27T11:36:03.196Z,11.68
2019-02-27T11:37:06.361Z,11.68
2019-02-27T11:38:10.565Z,11.81
2019-02-27T11:39:14.329Z,11.72
2019-02-27T11:40:20.541Z,11.71
2019-02-27T11:41:24.207Z,11.83
2019-02-27T11:42:28.976Z,11.83
2019-02-27T11:43:33.198Z,11.90
2019-02-27T11:44:37.254Z,12.14
2019-02-27T11:45:41.041Z,12.09
2019-02-27T11:46:44.715Z,12.09
2019-02-27T11:47:48.356Z,12.04
2019-02-27T11:48:52.004Z,12.04
2019-02-27T11:49:55.666Z,11.93
2019-02-27T11:50:59.692Z,11.95
2019-02-27T11:52:03.379Z,12.14
2019-02-27T11:53:07.019Z,12.29
2019-02-27T11:54:10.662Z,12.42
2019-02-27T11:55:16.314Z,12.42
2019-02-27T11:56:20.858Z,12.51
2019-02-27T11:57:27.329Z,12.77
2019-02-27T11:58:31.070Z,12.87
2019-02-27T11:59:34.703Z,13.07
2019-02-27T12:00:38.641Z,13.17
2019-02-27T12:01:42.380Z,13.17
2019-02-27T12:02:46.139Z,13.37
2019-02-27T12:03:49.767Z,13.80
2019-02-27T12:04:56.479Z,12.86
2019-02-27T12:05:58.788Z,12.86
2019-02-27T12:07:02.436Z,12.89
2019-02-27T12:08:06.179Z,13.24
2019-02-27T12:09:09.811Z,13.61
2019-02-27T12:10:19.211Z,13.78
2019-02-27T12:11:22.846Z,13.94
2019-02-27T12:12:26.496Z,13.39
2019-02-27T12:13:32.306Z,13.39
2019-02-27T12:14:35.461Z,12.85
2019-02-27T12:15:43.347Z,12.93
2019-02-27T12:16:44.473Z,12.89
2019-02-27T12:17:48.507Z,12.89
2019-02-27T12:18:52.171Z,12.34
2019-02-27T12:19:55.832Z,12.22
2019-02-27T12:20:59.480Z,12.22
2019-02-27T12:22:03.527Z,12.49
2019-02-27T12:23:07.511Z,13.02
2019-02-27T12:24:12.555Z,13.02
2019-02-27T12:25:17.702Z,13.02
2019-02-27T12:26:21.368Z,13.02
2019-02-27T12:27:47.736Z,12.82
2019-02-27T12:28:30.401Z,12.82
2019-02-27T12:29:34.042Z,12.41
2019-02-27T12:30:38.041Z,12.41
2019-02-27T12:31:41.898Z,12.19
2019-02-27T12:32:45.651Z,12.05
2019-02-27T12:33:49.402Z,12.05
2019-02-27T12:34:53.088Z,12.21
2019-02-27T12:35:56.724Z,12.19
2019-02-27T12:37:00.412Z,12.01
2019-02-27T12:38:08.265Z,11.84
2019-02-27T12:39:10.495Z,11.76
2019-02-27T12:40:24.074Z,11.65
2019-02-27T12:41:24.461Z,11.62
2019-02-27T12:42:36.932Z,11.72
2019-02-27T12:43:33.398Z,11.49
2019-02-27T12:44:37.038Z,11.48
2019-02-27T12:45:41.017Z,11.46
2019-02-27T12:46:44.763Z,11.38
2019-02-27T12:47:48.480Z,11.38
2019-02-27T12:48:52.040Z,11.13
2019-02-27T12:49:55.681Z,10.73
2019-02-27T12:51:03.466Z,10.73
2019-02-27T12:52:04.719Z,10.73
2019-02-27T12:53:08.361Z,11.02
2019-02-27T12:54:11.996Z,11.02
2019-02-27T12:55:15.839Z,11.00
2019-02-27T12:56:19.559Z,11.07
2019-02-27T12:57:23.200Z,11.03
2019-02-27T12:58:26.837Z,11.08
2019-02-27T12:59:30.707Z,11.16
2019-02-27T13:00:36.249Z,11.18
2019-02-27T13:01:39.993Z,11.27
2019-02-27T13:02:43.629Z,11.27
2019-02-27T13:03:47.501Z,11.21
2019-02-27T13:04:52.635Z,11.19
2019-02-27T13:05:58.200Z,11.27
2019-02-27T13:07:01.890Z,11.94
2019-02-27T13:08:05.537Z,13.77
2019-02-27T13:09:09.176Z,13.77
2019-02-27T13:10:18.652Z,14.37
2019-02-27T13:11:22.289Z,14.96
2019-02-27T13:12:25.960Z,15.10
2019-02-27T13:13:29.609Z,15.55
2019-02-27T13:14:33.860Z,15.47
2019-02-27T13:15:38.314Z,15.21
2019-02-27T13:16:43.036Z,15.00
2019-02-27T13:17:46.702Z,15.80
2019-02-27T13:18:50.337Z,16.16
2019-02-27T13:19:53.966Z,16.16
2019-02-27T13:20:57.605Z,15.84
2019-02-27T13:22:01.243Z,15.65
2019-02-27T13:23:05.567Z,15.27
2019-02-27T13:24:09.331Z,15.70
2019-02-27T13:25:12.967Z,15.88
2019-02-27T13:26:16.601Z,16.28
2019-02-27T13:27:20.250Z,16.17
2019-02-27T13:28:23.916Z,16.41
2019-02-27T13:29:27.550Z,16.60
2019-02-27T13:30:31.184Z,16.80
2019-02-27T13:31:34.896Z,16.81
2019-02-27T13:32:38.541Z,17.07
2019-02-27T13:33:42.237Z,17.51
2019-02-27T13:34:48.241Z,17.66
2019-02-27T13:35:51.305Z,17.47
2019-02-27T13:36:54.940Z,16.95
2019-02-27T13:37:58.886Z,16.69
2019-02-27T13:39:02.552Z,16.22
2019-02-27T13:40:14.929Z,16.15
2019-02-27T13:41:18.564Z,16.13
2019-02-27T13:42:22.204Z,16.10
2019-02-27T13:43:27.083Z,16.10
2019-02-27T13:44:34.482Z,15.80
2019-02-27T13:45:36.773Z,15.10
2019-02-27T13:46:40.422Z,15.10
2019-02-27T13:47:44.050Z,15.05
2019-02-27T13:48:47.693Z,14.99
2019-02-27T13:49:51.367Z,15.07
2019-02-27T13:50:56.637Z,14.88
2019-02-27T13:52:00.654Z,14.29
2019-02-27T13:53:04.392Z,13.52
2019-02-27T13:54:08.032Z,13.28
2019-02-27T13:55:14.632Z,13.22
2019-02-27T13:56:18.272Z,13.00
2019-02-27T13:57:24.844Z,12.94
2019-02-27T13:58:27.185Z,12.22
2019-02-27T13:59:30.842Z,12.22
2019-02-27T14:00:37.018Z,11.85
2019-02-27T14:01:40.654Z,11.70
2019-02-27T14:02:44.297Z,11.47
2019-02-27T14:03:48.399Z,11.40
2019-02-27T14:04:53.828Z,11.90
2019-02-27T14:05:58.063Z,12.56
2019-02-27T14:07:01.697Z,12.56
2019-02-27T14:08:06.193Z,13.39
2019-02-27T14:09:10.315Z,13.66
2019-02-27T14:10:19.831Z,13.55
2019-02-27T14:11:24.873Z,13.55
2019-02-27T14:12:29.995Z,13.58
2019-02-27T14:13:35.766Z,13.58
2019-02-27T14:14:39.319Z,13.78
2019-02-27T14:15:43.029Z,13.88
2019-02-27T14:16:46.713Z,13.95
2019-02-27T14:17:50.538Z,14.16
2019-02-27T14:18:54.295Z,14.18
2019-02-27T14:19:57.894Z,13.65
2019-02-27T14:21:02.304Z,13.66
2019-02-27T14:22:07.535Z,13.56
2019-02-27T14:23:11.930Z,13.70
2019-02-27T14:24:20.299Z,13.64
2019-02-27T14:25:28.501Z,13.54
2019-02-27T14:26:30.181Z,13.13
2019-02-27T14:27:33.822Z,13.13
2019-02-27T14:28:37.480Z,13.17
2019-02-27T14:29:41.359Z,13.06
2019-02-27T14:30:50.606Z,12.94